Time;durP1;ratioP1;P1;durP2;ratioP2;P2;SDS_P1;SDS_P2;PMS_P1;PMS_P2;Temp;Humidity;BMP_temperature;BMP_pressure;BME280_temperature;BME280_humidity;BME280_pressure;Samples;Min_cycle;Max_cycle;Signal;HPM_P1;HPM_P2
2022/04/19 00:01:33;;;;;;;13.18;6.78;;;6.90;99.90;;;;;;5056926;28;20048;-89
2022/04/19 00:03:59;;;;;;;12.10;6.10;;;6.90;99.90;;;;;;5074553;28;20074;-89
2022/04/19 00:06:24;;;;;;;14.25;6.97;;;6.80;99.90;;;;;;5056258;28;20036;-89
2022/04/19 00:08:51;;;;;;;13.98;6.45;;;6.80;99.90;;;;;;5074770;28;20140;-90
2022/04/19 00:11:17;;;;;;;12.00;6.05;;;6.70;99.90;;;;;;5074987;28;20044;-89
2022/04/19 00:13:43;;;;;;;13.82;6.10;;;6.70;99.90;;;;;;5056288;28;20399;-89
2022/04/19 00:16:08;;;;;;;13.32;6.00;;;6.70;99.90;;;;;;5057201;28;20052;-89
2022/04/19 00:18:34;;;;;;;12.95;5.88;;;6.70;99.90;;;;;;5056840;28;20119;-89
2022/04/19 00:21:00;;;;;;;13.65;5.88;;;6.60;99.90;;;;;;5073653;28;20195;-89
2022/04/19 00:23:26;;;;;;;13.93;6.50;;;6.60;99.90;;;;;;5074991;28;20040;-89
2022/04/19 00:25:52;;;;;;;13.05;5.95;;;6.60;99.90;;;;;;5056389;28;20396;-89
2022/04/19 00:28:19;;;;;;;13.48;6.10;;;6.50;99.90;;;;;;5056177;28;20094;-89
2022/04/19 00:30:47;;;;;;;11.80;5.30;;;6.50;99.90;;;;;;5056252;28;20055;-89
2022/04/19 00:33:13;;;;;;;13.60;6.18;;;6.40;99.90;;;;;;5056780;28;20052;-89
2022/04/19 00:35:39;;;;;;;12.68;6.00;;;6.40;99.90;;;;;;5073688;28;20040;-90
2022/04/19 00:38:05;;;;;;;13.65;6.07;;;6.40;99.90;;;;;;5058162;28;20055;-89
2022/04/19 00:40:30;;;;;;;14.20;6.25;;;6.30;99.90;;;;;;5055921;28;20040;-89
2022/04/19 00:42:57;;;;;;;13.80;6.68;;;6.30;99.90;;;;;;5057047;28;20040;-89
2022/04/19 00:45:23;;;;;;;15.15;7.05;;;6.20;99.90;;;;;;5059849;28;20127;-89
2022/04/19 00:47:50;;;;;;;14.53;7.40;;;6.20;99.90;;;;;;5073454;28;20037;-89
2022/04/19 00:50:16;;;;;;;15.07;7.55;;;6.20;99.90;;;;;;5056359;28;20045;-89
2022/04/19 00:52:46;;;;;;;16.53;8.17;;;6.10;99.90;;;;;;5056480;28;20139;-89
2022/04/19 00:55:12;;;;;;;15.70;8.18;;;6.10;99.90;;;;;;5072536;28;20115;-89
2022/04/19 00:57:40;;;;;;;15.10;7.70;;;6.10;99.90;;;;;;5073583;28;20560;-89
2022/04/19 01:00:09;;;;;;;16.10;8.13;;;6.00;99.90;;;;;;5057352;28;20075;-89
2022/04/19 01:02:37;;;;;;;15.77;7.80;;;6.00;99.90;;;;;;5055347;28;20054;-88
2022/04/19 01:05:04;;;;;;;17.20;8.13;;;5.90;99.90;;;;;;5055502;28;20047;-89
2022/04/19 01:07:30;;;;;;;16.77;7.50;;;5.90;99.90;;;;;;5074189;28;20547;-89
2022/04/19 01:09:56;;;;;;;18.07;8.07;;;5.90;99.90;;;;;;5073328;28;20426;-89
2022/04/19 01:15:08;;;;;;;15.83;8.00;;;5.80;99.90;;;;;;5055795;28;20052;-89
2022/04/19 01:17:39;;;;;;;16.73;8.13;;;5.80;99.90;;;;;;5055275;28;20055;-89
2022/04/19 01:20:05;;;;;;;16.97;8.60;;;5.70;99.90;;;;;;5073387;28;20064;-89
2022/04/19 01:22:35;;;;;;;18.80;8.50;;;5.70;99.90;;;;;;5073856;28;20110;-89
2022/04/19 01:25:00;;;;;;;15.33;7.83;;;5.60;99.90;;;;;;5055003;28;20123;-89
2022/04/19 01:27:26;;;;;;;18.27;8.10;;;5.60;99.90;;;;;;5073533;28;20124;-89
2022/04/19 01:29:57;;;;;;;17.63;9.87;;;5.50;99.90;;;;;;5071919;28;20044;-89
2022/04/19 01:32:23;;;;;;;17.20;9.35;;;5.50;99.90;;;;;;5073512;28;20044;-89
2022/04/19 01:34:48;;;;;;;18.60;9.90;;;5.50;99.90;;;;;;5054894;28;20114;-89
2022/04/19 01:37:15;;;;;;;17.47;9.87;;;5.50;99.90;;;;;;5072508;28;20041;-89
2022/04/19 01:42:25;;;;;;;17.93;9.63;;;5.50;99.90;;;;;;5055602;28;20054;-89
2022/04/19 01:44:50;;;;;;;20.07;10.10;;;5.40;99.90;;;;;;5072328;28;20052;-89
2022/04/19 01:47:16;;;;;;;19.30;10.40;;;5.40;99.90;;;;;;5074702;28;20047;-89
2022/04/19 01:49:41;;;;;;;21.40;11.03;;;5.30;99.90;;;;;;5073099;28;20377;-89
2022/04/19 01:52:08;;;;;;;19.80;10.40;;;5.30;99.90;;;;;;5072012;28;20071;-89
2022/04/19 01:54:34;;;;;;;19.17;9.80;;;5.30;99.90;;;;;;5073101;28;20389;-90
2022/04/19 01:57:00;;;;;;;18.33;10.00;;;5.30;99.90;;;;;;5072192;28;20056;-89
2022/04/19 01:59:25;;;;;;;17.88;10.25;;;5.30;99.90;;;;;;5054584;28;20044;-89
2022/04/19 02:01:51;;;;;;;17.53;10.33;;;5.20;99.90;;;;;;5071962;28;20044;-89
2022/04/19 02:04:18;;;;;;;20.27;10.90;;;5.20;99.90;;;;;;5072780;28;20048;-89
2022/04/19 02:06:44;;;;;;;20.40;10.60;;;5.10;99.90;;;;;;5071580;28;20115;-89
2022/04/19 02:09:10;;;;;;;19.77;11.17;;;5.10;99.90;;;;;;5073022;28;20040;-89
2022/04/19 02:11:37;;;;;;;21.87;10.83;;;5.10;99.90;;;;;;5054694;28;20040;-89
2022/04/19 02:14:04;;;;;;;19.73;10.67;;;5.00;99.90;;;;;;5053811;28;20044;-89
2022/04/19 02:16:31;;;;;;;19.77;10.63;;;5.00;99.90;;;;;;5073249;28;20044;-90
2022/04/19 02:18:57;;;;;;;20.50;11.73;;;4.90;99.90;;;;;;5072215;28;20116;-89
2022/04/19 02:21:22;;;;;;;20.30;11.10;;;4.90;99.90;;;;;;5055233;28;20121;-89
2022/04/19 02:23:48;;;;;;;22.13;11.00;;;4.90;99.90;;;;;;5055248;28;20052;-89
2022/04/19 02:26:14;;;;;;;20.97;11.43;;;4.80;99.90;;;;;;5055325;28;20040;-89
2022/04/19 02:28:40;;;;;;;21.20;11.50;;;4.80;99.90;;;;;;5077965;28;20048;-89
2022/04/19 02:31:05;;;;;;;20.43;11.67;;;4.70;99.90;;;;;;5065265;28;20044;-89
2022/04/19 02:33:31;;;;;;;20.60;11.77;;;4.70;99.90;;;;;;5077252;28;20048;-89
2022/04/19 02:35:56;;;;;;;19.73;10.93;;;5.30;99.90;;;;;;5054869;28;20037;-90
2022/04/19 02:38:22;;;;;;;21.40;11.20;;;4.60;99.90;;;;;;5055089;28;20052;-89
2022/04/19 02:40:48;;;;;;;21.70;12.03;;;4.60;99.90;;;;;;5053634;28;20102;-89
2022/04/19 02:43:14;;;;;;;22.23;12.60;;;4.50;99.90;;;;;;5054591;28;20044;-89
2022/04/19 02:45:39;;;;;;;20.93;11.87;;;4.50;99.90;;;;;;5054701;28;20432;-89
2022/04/19 02:48:07;;;;;;;20.77;12.10;;;4.50;99.90;;;;;;5072077;28;20545;-89
2022/04/19 02:50:44;;;;;;;22.33;13.20;;;4.50;99.90;;;;;;5073095;28;20441;-89
2022/04/19 02:53:10;;;;;;;24.93;13.33;;;4.40;99.90;;;;;;5056449;28;20049;-89
2022/04/19 02:55:38;;;;;;;23.50;13.00;;;4.40;99.90;;;;;;5071548;28;20048;-89
2022/04/19 02:58:07;;;;;;;21.63;12.10;;;4.40;99.90;;;;;;5054626;28;20158;-89
2022/04/19 03:00:32;;;;;;;20.97;12.03;;;4.30;99.90;;;;;;5054217;28;20430;-88
2022/04/19 03:02:58;;;;;;;22.30;12.47;;;4.30;99.90;;;;;;5071226;28;20118;-89
2022/04/19 03:05:23;;;;;;;22.53;13.87;;;4.30;99.90;;;;;;5054116;28;20395;-89
2022/04/19 03:07:49;;;;;;;24.13;11.47;;;4.30;99.90;;;;;;5053903;28;20044;-89
2022/04/19 03:10:16;;;;;;;23.47;12.57;;;4.30;99.90;;;;;;5053582;28;20040;-89
2022/04/19 03:12:45;;;;;;;19.80;11.67;;;4.30;99.90;;;;;;5054222;28;20117;-89
2022/04/19 03:15:15;;;;;;;23.43;12.90;;;4.20;99.90;;;;;;5071594;28;20048;-89
2022/04/19 03:17:41;;;;;;;21.70;11.67;;;4.20;99.90;;;;;;5054851;28;20049;-89
2022/04/19 03:20:08;;;;;;;21.23;10.90;;;4.20;99.90;;;;;;5075669;28;20514;-88
2022/04/19 03:28:04;;;;;;;;;;;4.20;99.90;;;;;;5058552;28;20040;-89
2022/04/19 03:30:30;;;;;;;21.50;11.17;;;4.20;99.90;;;;;;5057307;28;19920;-89
2022/04/19 03:32:55;;;;;;;18.70;10.00;;;4.20;99.90;;;;;;5075306;28;20550;-88
2022/04/19 03:35:21;;;;;;;19.93;10.53;;;4.10;99.90;;;;;;5057624;28;20139;-88
2022/04/19 03:37:47;;;;;;;18.57;9.80;;;4.20;99.90;;;;;;5057049;28;20076;-89
2022/04/19 03:40:13;;;;;;;19.43;9.83;;;4.10;99.90;;;;;;5075386;28;20052;-89
2022/04/19 03:42:42;;;;;;;18.10;9.63;;;4.20;99.90;;;;;;5057817;28;20060;-89
2022/04/19 03:45:09;;;;;;;18.43;9.53;;;4.20;99.90;;;;;;5057551;28;20049;-88
2022/04/19 03:47:35;;;;;;;17.73;9.67;;;4.20;99.90;;;;;;5057341;28;20044;-89
2022/04/19 03:50:01;;;;;;;18.50;9.90;;;4.20;99.90;;;;;;5056866;28;20435;-89
2022/04/19 03:52:27;;;;;;;18.43;9.87;;;4.20;99.90;;;;;;5075300;28;20486;-89
2022/04/19 03:54:52;;;;;;;19.17;10.13;;;4.20;99.90;;;;;;5075953;28;20504;-89
2022/04/19 03:57:18;;;;;;;17.70;9.20;;;4.10;99.90;;;;;;5059323;28;20099;-87
2022/04/19 03:59:44;;;;;;;17.83;10.07;;;4.10;99.90;;;;;;5075000;28;20040;-89
2022/04/19 04:02:10;;;;;;;17.07;9.50;;;4.10;99.90;;;;;;5064909;28;20040;-89
2022/04/19 04:04:36;;;;;;;20.63;10.00;;;4.00;99.90;;;;;;5070253;28;20495;-89
2022/04/19 04:07:06;;;;;;;18.43;9.20;;;4.00;99.90;;;;;;5094499;28;20040;-88
2022/04/19 04:09:32;;;;;;;19.00;10.00;;;3.90;99.90;;;;;;5096147;28;20042;-89
2022/04/19 04:12:03;;;;;;;19.20;10.03;;;3.90;99.90;;;;;;5076110;28;20102;-89
2022/04/19 04:14:29;;;;;;;17.13;9.23;;;4.00;99.90;;;;;;5094858;28;20048;-89
2022/04/19 04:16:55;;;;;;;19.10;10.07;;;3.00;99.90;;;;;;5077371;28;20033;-89
2022/04/19 04:19:21;;;;;;;18.03;9.80;;;3.90;99.90;;;;;;5075947;28;20043;-89
2022/04/19 04:21:47;;;;;;;16.03;8.47;;;3.90;99.90;;;;;;5095048;28;20090;-89
2022/04/19 04:24:12;;;;;;;17.17;9.23;;;3.90;99.90;;;;;;5095386;28;20044;-89
2022/04/19 04:26:38;;;;;;;19.27;10.03;;;3.80;99.90;;;;;;5094274;28;20044;-89
2022/04/19 04:29:04;;;;;;;18.53;9.97;;;3.80;99.90;;;;;;5093599;28;20044;-89
2022/04/19 04:31:29;;;;;;;17.37;10.07;;;3.80;99.90;;;;;;5076892;28;20048;-89
2022/04/19 04:33:55;;;;;;;21.13;11.03;;;3.80;99.90;;;;;;5075566;28;20089;-89
2022/04/19 04:36:20;;;;;;;19.97;10.83;;;3.70;99.90;;;;;;5076456;28;20040;-89
2022/04/19 04:38:46;;;;;;;22.37;10.93;;;3.80;99.90;;;;;;5076290;28;20376;-88
2022/04/19 04:41:12;;;;;;;20.57;10.67;;;3.80;99.90;;;;;;5075846;28;20048;-87
2022/04/19 04:43:39;;;;;;;19.80;10.73;;;3.70;99.90;;;;;;5094534;28;20403;-87
2022/04/19 04:51:35;;;;;;;20.17;10.07;;;3.70;99.90;;;;;;5076531;28;20044;-87
2022/04/19 04:54:00;;;;;;;19.20;9.60;;;3.80;99.90;;;;;;5075708;28;20178;-87
2022/04/19 04:56:26;;;;;;;17.63;10.10;;;3.80;99.90;;;;;;5094045;28;20044;-87
2022/04/19 04:58:52;;;;;;;18.27;9.70;;;3.90;99.90;;;;;;5097106;28;20051;-87
2022/04/19 05:01:18;;;;;;;16.93;9.17;;;3.90;99.90;;;;;;5094440;28;20048;-88
2022/04/19 05:03:43;;;;;;;16.57;8.83;;;4.00;99.90;;;;;;5076191;28;20032;-87
2022/04/19 05:06:09;;;;;;;18.70;9.17;;;4.00;99.90;;;;;;5094366;28;20055;-90
2022/04/19 05:08:34;;;;;;;17.70;9.13;;;4.10;99.90;;;;;;5075286;28;20126;-88
2022/04/19 05:11:00;;;;;;;15.43;8.73;;;4.20;99.90;;;;;;5075643;28;20079;-87
2022/04/19 05:13:26;;;;;;;15.50;8.53;;;4.30;99.90;;;;;;5094240;28;20048;-88
2022/04/19 05:15:51;;;;;;;15.80;8.40;;;4.40;99.90;;;;;;5075463;28;20562;-87
2022/04/19 05:18:17;;;;;;;16.27;8.77;;;4.40;99.90;;;;;;5094537;28;20032;-87
2022/04/19 05:20:43;;;;;;;15.07;7.87;;;4.50;99.90;;;;;;5094272;28;20048;-87
2022/04/19 05:23:09;;;;;;;15.27;7.67;;;4.60;99.90;;;;;;5077318;28;20097;-88
2022/04/19 05:25:35;;;;;;;14.20;7.60;;;4.70;99.90;;;;;;5080876;28;20505;-88
2022/04/19 05:28:01;;;;;;;14.93;7.73;;;4.90;99.90;;;;;;5098974;28;20529;-87
2022/04/19 05:30:27;;;;;;;15.73;7.90;;;5.00;99.90;;;;;;5097417;28;20048;-90
2022/04/19 05:32:53;;;;;;;15.93;8.10;;;5.10;99.90;;;;;;5093565;28;20074;-88
2022/04/19 05:35:19;;;;;;;14.70;7.63;;;5.10;99.90;;;;;;5075278;28;20047;-87
2022/04/19 05:37:46;;;;;;;15.80;7.67;;;5.20;99.90;;;;;;5074367;28;20036;-87
2022/04/19 05:40:12;;;;;;;14.50;8.00;;;5.40;99.90;;;;;;5092956;28;20055;-88
2022/04/19 05:42:37;;;;;;;15.73;8.27;;;5.40;99.90;;;;;;5093837;28;20044;-88
2022/04/19 05:45:03;;;;;;;15.57;7.60;;;5.50;99.90;;;;;;5092823;28;20067;-88
2022/04/19 05:47:29;;;;;;;15.37;8.23;;;5.60;99.90;;;;;;5096205;28;20075;-94
2022/04/19 05:49:58;;;;;;;15.47;8.00;;;5.70;99.90;;;;;;5075232;28;20052;-89
2022/04/19 05:52:24;;;;;;;15.03;7.40;;;5.80;99.90;;;;;;5076079;28;20048;-88
2022/04/19 05:54:49;;;;;;;14.73;7.83;;;5.70;99.90;;;;;;5075502;28;20097;-88
2022/04/19 05:57:15;;;;;;;15.97;7.93;;;5.80;99.90;;;;;;5092429;28;20048;-93
2022/04/19 05:59:41;;;;;;;15.77;8.53;;;5.70;99.90;;;;;;5074939;28;20075;-92
2022/04/19 06:04:53;;;;;;;14.73;7.63;;;6.10;99.90;;;;;;5075618;28;20098;-88
2022/04/19 06:07:23;;;;;;;18.03;8.33;;;6.30;99.90;;;;;;5075629;28;20079;-89
2022/04/19 06:09:49;;;;;;;17.63;8.17;;;6.30;99.90;;;;;;5092805;28;20119;-88
2022/04/19 06:12:15;;;;;;;15.50;7.93;;;6.40;99.90;;;;;;5092753;28;20044;-88
2022/04/19 06:14:41;;;;;;;15.38;8.45;;;6.50;99.90;;;;;;5075126;28;20039;-88
2022/04/19 06:17:07;;;;;;;16.40;7.95;;;6.50;99.90;;;;;;5093413;28;20040;-89
2022/04/19 06:19:32;;;;;;;13.67;7.53;;;6.60;99.90;;;;;;5058581;28;20041;-88
2022/04/19 06:21:59;;;;;;;16.75;8.02;;;6.70;99.90;;;;;;5051168;28;20114;-88
2022/04/19 06:24:25;;;;;;;15.88;7.57;;;6.80;99.90;;;;;;5051254;28;20068;-89
2022/04/19 06:26:51;;;;;;;14.63;8.10;;;7.00;99.90;;;;;;5060115;28;20044;-88
2022/04/19 06:29:17;;;;;;;14.57;7.53;;;7.00;99.90;;;;;;5057028;28;20040;-88
2022/04/19 06:31:45;;;;;;;15.52;7.85;;;7.20;99.90;;;;;;5073754;28;20048;-88
2022/04/19 06:34:11;;;;;;;14.52;7.35;;;7.20;99.90;;;;;;5053863;28;20040;-88
2022/04/19 06:36:37;;;;;;;17.40;7.88;;;7.30;99.90;;;;;;5057072;28;20098;-88
2022/04/19 06:39:03;;;;;;;15.35;7.40;;;7.50;99.90;;;;;;5065162;28;20040;-88
2022/04/19 06:41:29;;;;;;;16.55;7.90;;;7.60;99.90;;;;;;5053304;28;20041;-88
2022/04/19 06:43:57;;;;;;;14.63;7.07;;;7.90;99.90;;;;;;5051353;28;20477;-88
2022/04/19 06:46:25;;;;;;;15.75;7.63;;;7.80;99.90;;;;;;5050780;28;20077;-89
2022/04/19 06:48:51;;;;;;;14.48;7.40;;;7.90;99.90;;;;;;5050596;28;20044;-89
2022/04/19 06:51:17;;;;;;;15.38;7.88;;;8.40;99.90;;;;;;5052429;28;20041;-88
2022/04/19 06:53:43;;;;;;;14.38;7.15;;;8.20;99.90;;;;;;5059363;28;20044;-89
2022/04/19 06:56:10;;;;;;;14.88;7.95;;;8.30;99.90;;;;;;5086505;28;20047;-87
2022/04/19 06:58:35;;;;;;;15.70;7.93;;;8.50;99.90;;;;;;5063618;28;20048;-90
2022/04/19 07:01:01;;;;;;;13.05;7.40;;;8.60;99.90;;;;;;5054891;28;20110;-89
2022/04/19 07:03:26;;;;;;;15.60;7.43;;;8.70;99.90;;;;;;5055140;28;20094;-89
2022/04/19 07:05:52;;;;;;;15.63;7.20;;;8.90;99.90;;;;;;5056014;28;20052;-89
2022/04/19 07:08:18;;;;;;;13.02;6.63;;;9.00;99.90;;;;;;5058016;28;20408;-89
2022/04/19 07:10:43;;;;;;;14.82;7.53;;;9.20;99.90;;;;;;5065135;28;20090;-89
2022/04/19 07:13:11;;;;;;;15.68;7.97;;;9.30;99.90;;;;;;5058317;28;20044;-88
2022/04/19 07:15:37;;;;;;;13.52;6.90;;;9.70;99.90;;;;;;5058149;28;20127;-89
2022/04/19 07:18:02;;;;;;;12.60;7.05;;;9.60;99.90;;;;;;5057640;28;20139;-89
2022/04/19 07:28:40;;;;;;;;;;;10.30;99.90;;;;;;5057400;28;20056;-89
2022/04/19 07:31:06;;;;;;;13.52;6.55;;;10.50;99.90;;;;;;5076250;28;20292;-88
2022/04/19 07:33:34;;;;;;;13.77;6.60;;;10.60;99.90;;;;;;5058370;28;20048;-89
2022/04/19 07:36:00;;;;;;;14.77;6.38;;;10.80;99.90;;;;;;5056763;28;20049;-89
2022/04/19 07:38:25;;;;;;;13.05;6.43;;;10.90;99.90;;;;;;5057868;28;20063;-88
2022/04/19 07:40:51;;;;;;;14.27;6.40;;;11.00;99.90;;;;;;5074662;28;20055;-87
2022/04/19 07:43:17;;;;;;;12.23;6.50;;;11.20;99.90;;;;;;5057511;28;20063;-88
2022/04/19 07:45:42;;;;;;;11.95;5.80;;;11.40;99.90;;;;;;5075337;28;20044;-88
2022/04/19 07:48:08;;;;;;;10.85;5.72;;;11.50;99.90;;;;;;5057445;28;20052;-88
2022/04/19 07:50:34;;;;;;;11.93;6.20;;;11.60;99.90;;;;;;5075192;28;20041;-88
2022/04/19 07:53:00;;;;;;;11.80;6.60;;;12.40;99.90;;;;;;5057295;28;20041;-87
2022/04/19 07:55:29;;;;;;;11.52;5.95;;;11.80;99.90;;;;;;5057779;28;20041;-87
2022/04/19 07:57:55;;;;;;;11.40;6.00;;;11.90;99.90;;;;;;5051734;28;20052;-88
2022/04/19 08:00:21;;;;;;;11.23;6.40;;;11.80;99.90;;;;;;5068517;28;20035;-87
2022/04/19 08:02:47;;;;;;;11.88;6.05;;;12.10;99.90;;;;;;5068861;28;20040;-88
2022/04/19 08:05:13;;;;;;;11.90;5.80;;;12.90;99.90;;;;;;5076828;28;20461;-88
2022/04/19 08:07:39;;;;;;;12.13;5.78;;;12.20;99.90;;;;;;5059875;28;20159;-89
2022/04/19 08:10:05;;;;;;;11.57;5.80;;;12.40;99.90;;;;;;5057349;28;20558;-88
2022/04/19 08:12:32;;;;;;;10.77;5.90;;;12.50;99.90;;;;;;5053962;28;20077;-88
2022/04/19 08:14:57;;;;;;;11.20;5.47;;;12.50;99.90;;;;;;5053477;28;20041;-88
2022/04/19 08:17:23;;;;;;;12.95;5.82;;;12.70;99.90;;;;;;5057779;28;20051;-89
2022/04/19 08:19:49;;;;;;;12.05;5.28;;;12.70;99.90;;;;;;5061572;28;20053;-88
2022/04/19 08:22:16;;;;;;;13.10;5.45;;;12.70;99.90;;;;;;5058817;28;20072;-88
2022/04/19 08:24:42;;;;;;;12.43;5.80;;;12.80;99.90;;;;;;5061416;28;20041;-89
2022/04/19 08:27:07;;;;;;;11.38;5.63;;;12.90;99.90;;;;;;5056552;28;20114;-89
2022/04/19 08:29:33;;;;;;;11.13;5.45;;;13.00;99.90;;;;;;5053482;28;20477;-88
2022/04/19 08:31:59;;;;;;;10.65;4.78;;;13.10;99.90;;;;;;5052669;28;20057;-88
2022/04/19 08:34:24;;;;;;;11.70;5.47;;;13.30;99.90;;;;;;5054966;28;20074;-89
2022/04/19 08:36:50;;;;;;;9.35;4.53;;;13.30;99.90;;;;;;5053472;28;20409;-89
2022/04/19 08:39:16;;;;;;;9.40;4.35;;;13.50;99.90;;;;;;5067648;28;20360;-85
2022/04/19 08:41:43;;;;;;;9.90;4.43;;;13.60;99.90;;;;;;5076130;28;20101;-89
2022/04/19 08:44:09;;;;;;;9.65;4.53;;;13.70;99.90;;;;;;5094288;28;20084;-86
2022/04/19 08:46:41;;;;;;;9.13;3.72;;;13.80;99.90;;;;;;5093536;28;20048;-87
2022/04/19 08:49:06;;;;;;;9.80;4.22;;;14.00;99.90;;;;;;5076747;28;20068;-87
2022/04/19 08:51:34;;;;;;;10.00;4.60;;;13.90;99.90;;;;;;5075967;28;20564;-88
2022/04/19 08:59:30;;;;;;;9.15;3.75;;;14.10;99.90;;;;;;5094781;28;20044;-87
2022/04/19 09:01:56;;;;;;;8.23;3.40;;;14.20;99.90;;;;;;5075011;28;20472;-87
2022/04/19 09:04:22;;;;;;;8.95;3.50;;;14.30;99.90;;;;;;5075925;28;20118;-88
2022/04/19 09:06:53;;;;;;;7.60;3.03;;;14.40;99.90;;;;;;5075399;28;20086;-87
2022/04/19 09:09:28;;;;;;;8.57;2.92;;;14.50;99.90;;;;;;5093872;28;20056;-87
2022/04/19 09:12:04;;;;;;;8.30;3.20;;;14.60;99.90;;;;;;5076279;28;20048;-87
2022/04/19 09:14:30;;;;;;;8.65;3.22;;;14.60;99.80;;;;;;5094024;28;20040;-87
2022/04/19 09:17:08;;;;;;;11.07;3.67;;;14.80;99.90;;;;;;5075477;28;20044;-87
2022/04/19 09:19:38;;;;;;;9.32;3.47;;;14.80;97.20;;;;;;5093641;28;20051;-87
2022/04/19 09:22:05;;;;;;;8.45;3.53;;;14.80;98.50;;;;;;5073477;28;20044;-86
2022/04/19 09:24:33;;;;;;;8.68;3.50;;;14.90;98.30;;;;;;5053386;28;20440;-86
2022/04/19 09:26:58;;;;;;;9.60;3.67;;;15.00;97.80;;;;;;5035240;28;20574;-87
2022/04/19 09:29:26;;;;;;;8.60;3.60;;;15.00;97.90;;;;;;5035244;28;20045;-86
2022/04/19 09:32:02;;;;;;;8.43;3.60;;;15.10;97.70;;;;;;5035457;28;20045;-86
2022/04/19 09:34:33;;;;;;;8.55;3.60;;;15.20;97.70;;;;;;5053500;28;20041;-88
2022/04/19 09:37:08;;;;;;;8.27;3.15;;;15.30;97.40;;;;;;5034440;28;20052;-89
2022/04/19 09:39:36;;;;;;;8.00;3.35;;;15.30;96.30;;;;;;5053728;28;20102;-88
2022/04/19 09:42:15;;;;;;;8.45;3.42;;;15.20;96.40;;;;;;5052295;28;20507;-90
2022/04/19 09:44:42;;;;;;;7.28;3.03;;;15.30;95.30;;;;;;5053635;28;20045;-87
2022/04/19 09:47:27;;;;;;;8.68;3.70;;;15.50;95.80;;;;;;5053118;28;20646;-87
2022/04/19 09:50:02;;;;;;;8.82;3.05;;;16.10;95.60;;;;;;5034590;28;20040;-87
2022/04/19 09:52:50;;;;;;;8.70;3.20;;;15.90;94.60;;;;;;5053433;28;20051;-88
2022/04/19 09:55:19;;;;;;;9.20;2.97;;;15.80;92.80;;;;;;5035886;28;20110;-91
2022/04/19 09:57:48;;;;;;;8.65;2.80;;;15.90;93.60;;;;;;5052624;28;20094;-91
2022/04/19 10:00:20;;;;;;;6.45;2.20;;;16.10;93.10;;;;;;5040374;28;20049;-89
2022/04/19 10:09:10;;;;;;;7.80;2.42;;;16.20;91.30;;;;;;4966050;28;20058;-89
2022/04/19 10:11:43;;;;;;;7.05;2.25;;;16.30;89.40;;;;;;5025800;28;20129;-89
2022/04/19 10:14:20;;;;;;;7.90;2.50;;;17.20;90.90;;;;;;5053103;28;20053;-89
2022/04/19 10:16:53;;;;;;;7.22;2.30;;;16.00;89.10;;;;;;5034743;28;20045;-89
2022/04/19 10:19:19;;;;;;;6.68;2.45;;;16.80;88.10;;;;;;5038211;28;20403;-88
2022/04/19 10:22:02;;;;;;;7.63;2.40;;;17.70;90.10;;;;;;5052745;28;20045;-89
2022/04/19 10:24:45;;;;;;;7.75;2.42;;;16.90;88.90;;;;;;5034739;28;20076;-89
2022/04/19 10:27:11;;;;;;;5.78;2.25;;;17.20;88.80;;;;;;5054848;28;20076;-90
2022/04/19 10:29:42;;;;;;;6.22;2.20;;;17.30;89.50;;;;;;5071424;28;20075;-91
2022/04/19 10:32:08;;;;;;;7.40;2.50;;;17.70;89.00;;;;;;5072781;28;20048;-90
2022/04/19 10:34:36;;;;;;;7.03;2.55;;;18.40;89.00;;;;;;5074865;28;20044;-91
2022/04/19 10:37:23;;;;;;;7.63;2.30;;;18.00;87.60;;;;;;5074308;28;20040;-88
2022/04/19 10:39:58;;;;;;;7.35;2.50;;;18.70;84.20;;;;;;5091867;28;20047;-89
2022/04/19 10:42:42;;;;;;;9.65;2.42;;;18.10;85.10;;;;;;5074635;28;20052;-88
2022/04/19 10:45:20;;;;;;;5.72;2.08;;;18.10;84.30;;;;;;5092612;28;20249;-88
2022/04/19 10:47:51;;;;;;;7.10;2.30;;;18.10;82.90;;;;;;5074774;28;20495;-87
2022/04/19 10:50:45;;;;;;;7.55;2.20;;;17.90;83.80;;;;;;5095861;22;20083;-87
2022/04/19 10:53:13;;;;;;;6.75;2.38;;;17.80;82.70;;;;;;4991437;28;20550;-86
2022/04/19 10:55:58;;;;;;;6.45;2.10;;;18.20;83.80;;;;;;5008759;28;20046;-84
2022/04/19 10:58:41;;;;;;;6.78;2.53;;;18.20;83.30;;;;;;4993629;28;20043;-85
2022/04/19 11:01:41;;;;;;;6.82;2.38;;;17.80;81.10;;;;;;4991719;28;20058;-85
2022/04/19 11:04:11;;;;;;;8.50;2.20;;;18.00;80.80;;;;;;4991547;28;20410;-86
2022/04/19 11:07:43;;;;;;;6.28;2.20;;;18.40;83.20;;;;;;4992371;28;20132;-85
2022/04/19 11:10:09;;;;;;;9.55;2.55;;;18.20;80.50;;;;;;4992940;28;20484;-86
2022/04/19 11:12:56;;;;;;;7.32;2.40;;;19.00;82.90;;;;;;4993222;28;20058;-86
2022/04/19 11:15:42;;;;;;;8.40;2.30;;;18.60;81.70;;;;;;4992085;28;20062;-85
2022/04/19 11:23:58;;;;;;;7.80;2.67;;;19.70;80.60;;;;;;5072160;28;20041;-87
2022/04/19 11:26:42;;;;;;;7.60;2.40;;;18.40;81.20;;;;;;5005762;28;20135;-87
2022/04/19 11:29:18;;;;;;;9.32;2.53;;;19.60;81.20;;;;;;5053522;28;20087;-86
2022/04/19 11:31:49;;;;;;;7.47;2.50;;;19.20;78.60;;;;;;5072562;28;20043;-86
2022/04/19 11:34:27;;;;;;;7.00;2.67;;;18.40;78.80;;;;;;5055250;28;20080;-86
2022/04/19 11:37:04;;;;;;;7.50;2.42;;;19.50;80.90;;;;;;5053180;28;20032;-87
2022/04/19 11:49:19;;;;;;;7.78;2.55;;;19.90;80.30;;;;;;5075123;28;20443;-85
2022/04/19 11:52:08;;;;;;;8.75;2.40;;;19.40;79.80;;;;;;5057430;28;20135;-85
2022/04/19 11:54:35;;;;;;;8.30;2.85;;;19.70;79.40;;;;;;5075820;28;20079;-85
2022/04/19 11:57:10;;;;;;;7.68;2.20;;;20.30;79.80;;;;;;5056253;28;20106;-87
2022/04/19 11:59:43;;;;;;;6.75;2.50;;;20.80;76.60;;;;;;5057184;28;20044;-85
2022/04/19 12:02:28;;;;;;;8.80;2.65;;;19.80;76.20;;;;;;5057264;28;20518;-85
2022/04/19 12:04:56;;;;;;;7.80;2.50;;;19.40;74.20;;;;;;5055811;28;20056;-85
2022/04/19 12:07:25;;;;;;;8.48;2.30;;;19.70;76.40;;;;;;5074856;28;20174;-86
2022/04/19 12:10:00;;;;;;;8.40;2.40;;;19.40;75.00;;;;;;5074233;28;20151;-86
2022/04/19 12:12:39;;;;;;;6.45;2.10;;;19.80;75.00;;;;;;5056347;28;20037;-86
2022/04/19 12:15:11;;;;;;;7.18;2.05;;;19.90;73.60;;;;;;5075289;28;20392;-87
2022/04/19 12:17:44;;;;;;;6.20;2.15;;;20.20;74.60;;;;;;5074992;28;20033;-89
2022/04/19 12:20:22;;;;;;;8.93;2.38;;;20.50;72.60;;;;;;5075250;28;20064;-88
2022/04/19 12:23:09;;;;;;;6.95;2.35;;;20.80;72.10;;;;;;5056649;28;20040;-87
2022/04/19 12:25:40;;;;;;;6.95;2.20;;;19.90;73.20;;;;;;5055834;28;20090;-88
2022/04/19 12:28:12;;;;;;;6.63;2.40;;;20.10;73.80;;;;;;5059351;28;20052;-87
2022/04/19 12:30:46;;;;;;;7.20;2.90;;;20.40;73.30;;;;;;5056982;28;20037;-87
2022/04/19 12:33:14;;;;;;;6.60;2.40;;;20.40;72.00;;;;;;5057014;28;20531;-86
2022/04/19 12:35:53;;;;;;;6.90;2.47;;;20.80;72.20;;;;;;5056360;28;20037;-86
2022/04/19 12:38:30;;;;;;;7.22;2.72;;;20.60;71.80;;;;;;5073526;28;20051;-85
2022/04/19 12:40:55;;;;;;;8.57;2.75;;;20.80;70.50;;;;;;5071397;28;20036;-86
2022/04/19 12:43:47;;;;;;;7.45;2.60;;;20.10;71.30;;;;;;5073060;28;20487;-85
2022/04/19 12:46:14;;;;;;;7.30;2.67;;;20.30;71.10;;;;;;5054073;28;20044;-85
2022/04/19 12:48:40;;;;;;;6.45;2.53;;;20.20;71.40;;;;;;5055898;28;20120;-86
2022/04/19 12:51:09;;;;;;;7.55;2.95;;;21.20;71.90;;;;;;5072524;28;20076;-86
2022/04/19 12:54:00;;;;;;;7.82;2.45;;;20.70;70.70;;;;;;5073189;28;20053;-86
2022/04/19 12:56:26;;;;;;;7.70;2.60;;;20.50;69.90;;;;;;5054693;28;20041;-88
2022/04/19 12:58:54;;;;;;;9.90;3.00;;;20.80;70.60;;;;;;5072872;28;20515;-87
2022/04/19 13:01:22;;;;;;;9.43;3.17;;;20.10;69.60;;;;;;5055594;28;20052;-86
2022/04/19 13:04:05;;;;;;;12.65;3.30;;;19.60;69.50;;;;;;5055281;28;20048;-87
2022/04/19 13:12:39;;;;;;;7.53;2.60;;;20.00;69.10;;;;;;5053290;28;20392;-88
2022/04/19 13:15:06;;;;;;;7.50;2.70;;;20.20;70.50;;;;;;5072848;28;20040;-88
2022/04/19 13:17:37;;;;;;;8.73;2.90;;;20.30;69.90;;;;;;5073503;28;20033;-87
2022/04/19 13:20:04;;;;;;;10.98;2.83;;;20.50;69.40;;;;;;5054263;28;20036;-87
2022/04/19 13:22:30;;;;;;;11.73;2.78;;;20.60;69.20;;;;;;5073711;28;20068;-86
2022/04/19 13:25:01;;;;;;;7.55;2.45;;;20.80;69.60;;;;;;5055047;28;20044;-87
2022/04/19 13:27:33;;;;;;;8.95;2.60;;;21.00;69.50;;;;;;5072252;28;20427;-87
2022/04/19 13:30:09;;;;;;;6.40;2.50;;;21.20;69.30;;;;;;5069403;28;20051;-88
2022/04/19 13:32:47;;;;;;;7.65;2.80;;;21.00;68.80;;;;;;5073720;28;20036;-87
2022/04/19 13:35:19;;;;;;;7.57;3.03;;;20.10;66.50;;;;;;5072183;28;20495;-86
2022/04/19 13:40:56;;;;;;;7.95;2.40;;;21.40;66.40;;;;;;5070961;28;20040;-87
2022/04/19 13:43:21;;;;;;;7.10;2.70;;;20.70;66.10;;;;;;5048377;28;20053;-86
2022/04/19 13:45:47;;;;;;;7.25;2.75;;;21.30;67.10;;;;;;5051721;28;20535;-87
2022/04/19 13:48:13;;;;;;;7.43;2.30;;;21.60;67.60;;;;;;5061711;22;20411;-87
2022/04/19 13:50:38;;;;;;;7.15;2.72;;;21.20;67.60;;;;;;5054897;28;20468;-86
2022/04/19 13:53:13;;;;;;;7.05;2.53;;;21.00;66.80;;;;;;5055357;28;20052;-87
2022/04/19 13:55:45;;;;;;;7.55;2.40;;;21.30;66.90;;;;;;5066339;28;20076;-87
2022/04/19 13:58:10;;;;;;;8.18;2.83;;;20.60;67.10;;;;;;5062009;28;20048;-87